createdAt,value
2022-10-30T00:01:17.404Z,88.87
2022-10-30T00:03:45.797Z,88.89
2022-10-30T00:06:13.871Z,88.99
2022-10-30T00:08:43.322Z,89.01
2022-10-30T00:11:13.406Z,89.06
2022-10-30T00:13:46.076Z,89.16
2022-10-30T00:16:14.078Z,89.29
2022-10-30T00:18:43.484Z,89.47
2022-10-30T00:21:14.480Z,89.56
2022-10-30T00:23:48.523Z,89.58
2022-10-30T00:26:17.655Z,89.61
2022-10-30T00:28:50.282Z,89.66
2022-10-30T00:31:18.960Z,89.70
2022-10-30T00:33:51.700Z,89.73
2022-10-30T00:36:20.081Z,89.70
2022-10-30T00:38:48.009Z,89.61
2022-10-30T00:41:23.047Z,89.63
2022-10-30T00:43:52.129Z,89.67
2022-10-30T00:46:24.983Z,89.83
2022-10-30T00:49:10.601Z,89.80
2022-10-30T00:51:43.368Z,89.75
2022-10-30T00:54:13.195Z,89.68
2022-10-30T00:56:41.538Z,89.66
2022-10-30T00:59:13.905Z,89.64
2022-10-30T01:01:45.215Z,89.70
2022-10-30T01:04:15.970Z,89.70
2022-10-30T01:06:48.430Z,89.68
2022-10-30T01:09:16.865Z,89.74
2022-10-30T01:11:45.316Z,89.79
2022-10-30T01:14:17.114Z,89.84
2022-10-30T01:16:45.007Z,89.86
2022-10-30T01:19:15.975Z,89.82
2022-10-30T01:21:46.849Z,89.82
2022-10-30T01:24:39.319Z,89.79
2022-10-30T01:27:20.158Z,89.72
2022-10-30T01:30:22.457Z,89.67
2022-10-30T01:33:02.825Z,89.63
2022-10-30T01:35:40.977Z,89.59
2022-10-30T01:38:27.621Z,89.52
2022-10-30T01:40:55.645Z,89.46
2022-10-30T01:43:23.896Z,89.42
2022-10-30T01:46:13.647Z,89.37
2022-10-30T01:48:57.951Z,89.33
2022-10-30T01:52:00.587Z,89.27
2022-10-30T01:54:45.805Z,89.25
2022-10-30T01:57:35.566Z,89.21
2022-10-30T02:00:11.100Z,89.17
2022-10-30T02:02:43.089Z,89.15
2022-10-30T02:05:21.992Z,89.09
2022-10-30T02:07:49.999Z,89.09
2022-10-30T02:10:19.300Z,89.09
2022-10-30T02:12:47.718Z,89.12
2022-10-30T02:15:16.497Z,89.16
2022-10-30T02:17:44.695Z,89.14
2022-10-30T02:20:19.240Z,89.15
2022-10-30T02:22:48.040Z,89.13
2022-10-30T02:25:16.673Z,89.09
2022-10-30T02:27:44.689Z,89.14
2022-10-30T02:30:13.297Z,89.20
2022-10-30T02:32:41.733Z,89.23
2022-10-30T02:35:10.386Z,89.25
2022-10-30T02:37:39.787Z,89.26
2022-10-30T02:40:12.319Z,89.26
2022-10-30T02:42:40.456Z,89.23
2022-10-30T02:45:08.971Z,89.25
2022-10-30T02:47:36.973Z,89.27
2022-10-30T02:50:07.217Z,89.28
2022-10-30T02:52:36.465Z,89.34
2022-10-30T02:55:05.074Z,89.36
2022-10-30T02:57:33.950Z,89.42
2022-10-30T03:00:01.992Z,89.46
2022-10-30T03:02:31.882Z,89.54
2022-10-30T03:05:01.048Z,89.55
2022-10-30T03:07:29.056Z,89.54
2022-10-30T03:09:57.049Z,89.53
2022-10-30T03:12:25.147Z,89.54
2022-10-30T03:14:53.543Z,89.56
2022-10-30T03:17:21.543Z,89.57
2022-10-30T03:19:51.653Z,89.57
2022-10-30T03:22:19.519Z,89.69
2022-10-30T03:24:47.476Z,89.75
2022-10-30T03:27:15.620Z,89.84
2022-10-30T03:29:43.634Z,89.95
2022-10-30T03:32:13.364Z,90.00
2022-10-30T03:34:47.996Z,89.98
2022-10-30T03:37:15.880Z,89.98
2022-10-30T03:39:43.726Z,89.94
2022-10-30T03:42:12.023Z,89.90
2022-10-30T03:44:40.182Z,89.90
2022-10-30T03:47:08.779Z,89.90
2022-10-30T03:49:41.839Z,89.92
2022-10-30T03:52:12.363Z,89.92
2022-10-30T03:54:40.138Z,89.89
2022-10-30T03:57:09.579Z,89.85
2022-10-30T03:59:46.029Z,89.84
2022-10-30T04:02:34.396Z,89.87
2022-10-30T04:05:03.166Z,89.86
2022-10-30T04:07:31.010Z,89.84
2022-10-30T04:10:00.206Z,89.88
2022-10-30T04:12:29.664Z,89.88
2022-10-30T04:14:57.715Z,89.89
2022-10-30T04:17:26.217Z,89.99
2022-10-30T04:19:54.119Z,90.07
2022-10-30T04:22:22.509Z,90.11
2022-10-30T04:24:50.881Z,90.13
2022-10-30T04:27:20.191Z,90.13
2022-10-30T04:29:48.404Z,90.13
2022-10-30T04:32:16.779Z,90.15
2022-10-30T04:34:44.646Z,90.21
2022-10-30T04:37:12.622Z,90.27
2022-10-30T04:39:43.796Z,90.34
2022-10-30T04:42:17.429Z,90.40
2022-10-30T04:44:45.692Z,90.39
2022-10-30T04:47:13.558Z,90.40
2022-10-30T04:49:41.781Z,90.38
2022-10-30T04:52:10.167Z,90.43
2022-10-30T04:54:38.876Z,90.50
2022-10-30T04:57:06.799Z,90.56
2022-10-30T04:59:34.875Z,90.57
2022-10-30T05:02:02.764Z,90.64
2022-10-30T05:04:30.698Z,90.70
2022-10-30T05:07:00.795Z,90.69
2022-10-30T05:09:30.151Z,90.70
2022-10-30T05:11:59.139Z,90.73
2022-10-30T05:14:33.706Z,90.85
2022-10-30T05:17:02.310Z,90.86
2022-10-30T05:19:30.295Z,90.87
2022-10-30T05:21:58.463Z,90.85
2022-10-30T05:24:26.351Z,90.81
2022-10-30T05:26:55.672Z,90.76
2022-10-30T05:29:23.891Z,90.71
2022-10-30T05:31:51.908Z,90.65
2022-10-30T05:34:38.973Z,90.61
2022-10-30T05:37:06.952Z,90.57
2022-10-30T05:39:35.915Z,90.61
2022-10-30T05:42:06.583Z,90.61
2022-10-30T05:44:59.734Z,90.58
2022-10-30T05:47:30.010Z,90.54
2022-10-30T05:49:58.606Z,90.56
2022-10-30T05:52:27.575Z,90.57
2022-10-30T05:54:55.960Z,90.57
2022-10-30T05:57:35.096Z,90.63
2022-10-30T06:00:03.550Z,90.65
2022-10-30T06:02:32.859Z,90.66
2022-10-30T06:05:00.888Z,90.65
2022-10-30T06:07:29.134Z,90.69
2022-10-30T06:09:56.976Z,90.71
2022-10-30T06:12:38.648Z,90.71
2022-10-30T06:15:25.232Z,90.69
2022-10-30T06:17:54.273Z,90.71
2022-10-30T06:20:35.782Z,90.69
2022-10-30T06:23:22.686Z,90.67
2022-10-30T06:25:58.508Z,90.64
2022-10-30T06:28:37.048Z,90.63
2022-10-30T06:31:06.326Z,90.65
2022-10-30T06:33:35.226Z,90.66
2022-10-30T06:36:03.681Z,90.63
2022-10-30T06:38:31.547Z,90.61
2022-10-30T06:41:00.436Z,90.58
2022-10-30T06:43:51.338Z,90.53
2022-10-30T06:46:27.099Z,90.49
2022-10-30T06:48:59.550Z,90.52
2022-10-30T06:51:27.704Z,90.50
2022-10-30T06:53:55.883Z,90.51
2022-10-30T06:56:51.591Z,90.55
2022-10-30T06:59:22.362Z,90.63
2022-10-30T07:02:00.355Z,90.70
2022-10-30T07:04:39.947Z,90.72
2022-10-30T07:07:08.869Z,90.75
2022-10-30T07:09:36.829Z,90.84
2022-10-30T07:12:07.110Z,90.89
2022-10-30T07:14:41.844Z,90.86
2022-10-30T07:17:21.496Z,90.87
2022-10-30T07:19:55.159Z,90.84
2022-10-30T07:22:23.210Z,90.78
2022-10-30T07:24:53.927Z,90.81
2022-10-30T07:27:48.866Z,90.80
2022-10-30T07:30:45.711Z,90.86
2022-10-30T07:33:43.152Z,90.83
2022-10-30T07:36:34.341Z,90.81
2022-10-30T07:39:31.954Z,90.77
2022-10-30T07:42:18.979Z,90.71
2022-10-30T07:45:07.628Z,90.68
2022-10-30T07:47:57.134Z,90.66
2022-10-30T07:50:47.572Z,90.48
2022-10-30T07:53:16.053Z,90.27
2022-10-30T07:55:49.403Z,90.08
2022-10-30T07:58:41.305Z,89.97
2022-10-30T08:01:32.212Z,89.70
2022-10-30T08:04:11.369Z,89.23
2022-10-30T08:06:40.351Z,88.84
2022-10-30T08:09:09.268Z,88.58
2022-10-30T08:11:38.781Z,87.76
2022-10-30T08:14:07.081Z,87.60
2022-10-30T08:16:35.601Z,87.51
2022-10-30T08:19:04.103Z,86.94
2022-10-30T08:21:32.670Z,86.57
2022-10-30T08:24:05.636Z,86.61
2022-10-30T08:26:35.704Z,86.25
2022-10-30T08:29:04.399Z,86.36
2022-10-30T08:31:33.016Z,86.15
2022-10-30T08:34:05.691Z,85.94
2022-10-30T08:36:34.202Z,86.22
2022-10-30T08:39:04.181Z,86.10
2022-10-30T08:41:59.438Z,85.98
2022-10-30T08:44:31.466Z,85.98
2022-10-30T08:47:18.481Z,85.78
2022-10-30T08:49:46.656Z,85.33
2022-10-30T08:52:16.240Z,85.59
2022-10-30T08:54:48.938Z,85.88
2022-10-30T08:57:16.917Z,85.63
2022-10-30T08:59:45.228Z,85.71
2022-10-30T09:02:27.333Z,85.77
2022-10-30T09:05:14.162Z,85.59
2022-10-30T09:08:13.652Z,85.37
2022-10-30T09:11:00.178Z,85.11
2022-10-30T09:13:29.384Z,84.91
2022-10-30T09:16:03.160Z,84.73
2022-10-30T09:18:33.446Z,84.58
2022-10-30T09:21:04.778Z,83.83
2022-10-30T09:23:37.550Z,83.72
2022-10-30T09:26:25.371Z,83.41
2022-10-30T09:28:59.771Z,83.17
2022-10-30T09:31:46.376Z,83.16
2022-10-30T09:34:18.039Z,82.93
2022-10-30T09:36:49.773Z,82.99
2022-10-30T09:39:19.045Z,82.69
2022-10-30T09:42:05.685Z,82.83
2022-10-30T09:45:27.239Z,82.25
2022-10-30T09:48:13.759Z,82.53
2022-10-30T09:51:14.940Z,82.21
2022-10-30T09:54:06.623Z,82.39
2022-10-30T09:56:50.507Z,82.19
2022-10-30T09:59:45.117Z,81.72
2022-10-30T10:02:37.785Z,81.35
2022-10-30T10:05:21.747Z,81.20
2022-10-30T10:08:23.314Z,80.94
2022-10-30T10:11:31.857Z,80.84
2022-10-30T10:14:13.448Z,80.97
2022-10-30T10:16:48.667Z,80.98
2022-10-30T10:19:20.685Z,80.61
2022-10-30T10:21:57.832Z,80.54
2022-10-30T10:24:38.098Z,80.71
2022-10-30T10:27:19.639Z,80.51
2022-10-30T10:30:20.699Z,80.22
2022-10-30T10:33:26.521Z,80.02
2022-10-30T10:36:22.243Z,79.86
2022-10-30T10:38:53.275Z,79.68
2022-10-30T10:41:52.558Z,79.45
2022-10-30T10:44:42.305Z,79.21
2022-10-30T10:47:39.505Z,79.37
2022-10-30T10:50:31.147Z,79.59
2022-10-30T10:53:20.008Z,79.50
2022-10-30T10:55:53.199Z,79.73
2022-10-30T10:58:52.227Z,79.85
2022-10-30T11:01:31.853Z,79.48
2022-10-30T11:04:40.580Z,79.26
2022-10-30T11:07:29.286Z,79.56
2022-10-30T11:09:58.257Z,79.19
2022-10-30T11:12:36.544Z,78.94
2022-10-30T11:15:37.115Z,78.84
2022-10-30T11:18:08.650Z,78.71
2022-10-30T11:20:52.355Z,78.76
2022-10-30T11:23:45.262Z,78.66
2022-10-30T11:26:20.504Z,78.91
2022-10-30T11:28:57.737Z,79.21
2022-10-30T11:31:35.161Z,79.11
2022-10-30T11:34:18.518Z,79.06
2022-10-30T11:36:50.706Z,78.64
2022-10-30T11:39:30.604Z,78.75
2022-10-30T11:42:17.789Z,78.97
2022-10-30T11:45:05.823Z,78.83
2022-10-30T11:47:39.628Z,79.13
2022-10-30T11:50:22.519Z,78.53
2022-10-30T11:52:58.374Z,77.77
2022-10-30T11:55:39.718Z,77.79
2022-10-30T11:58:11.624Z,78.01
2022-10-30T12:00:45.867Z,78.58
2022-10-30T12:03:30.497Z,77.69
2022-10-30T12:06:10.687Z,77.61
2022-10-30T12:08:38.736Z,77.93
2022-10-30T12:11:07.069Z,78.40
2022-10-30T12:13:40.995Z,77.87
2022-10-30T12:16:15.809Z,77.73
2022-10-30T12:19:15.590Z,77.75
2022-10-30T12:21:47.793Z,77.81
2022-10-30T12:24:23.953Z,77.73
2022-10-30T12:26:54.691Z,77.28
2022-10-30T12:29:41.833Z,76.86
2022-10-30T12:32:21.812Z,77.18
2022-10-30T12:35:16.183Z,77.04
2022-10-30T12:37:44.464Z,76.71
2022-10-30T12:40:20.772Z,76.74
2022-10-30T12:43:02.603Z,76.77
2022-10-30T12:45:43.764Z,76.87
2022-10-30T12:48:24.854Z,76.86
2022-10-30T12:50:57.798Z,76.92
2022-10-30T12:53:41.014Z,76.71
2022-10-30T12:56:15.077Z,76.81
2022-10-30T12:59:28.956Z,76.80
2022-10-30T13:02:05.168Z,76.77
2022-10-30T13:04:38.211Z,76.85
2022-10-30T13:07:27.036Z,76.78
2022-10-30T13:10:03.614Z,76.41
2022-10-30T13:12:36.552Z,76.53
2022-10-30T13:15:17.976Z,76.53
2022-10-30T13:17:46.341Z,76.69
2022-10-30T13:20:15.661Z,76.88
2022-10-30T13:23:07.537Z,77.00
2022-10-30T13:26:14.387Z,77.21
2022-10-30T13:28:59.855Z,77.49
2022-10-30T13:31:38.783Z,77.56
2022-10-30T13:34:25.548Z,78.01
2022-10-30T13:37:04.650Z,78.20
2022-10-30T13:40:12.059Z,77.50
2022-10-30T13:42:49.490Z,77.58
2022-10-30T13:45:39.552Z,78.22
2022-10-30T13:48:37.314Z,78.44
2022-10-30T13:51:35.215Z,78.99
2022-10-30T13:54:25.639Z,79.06
2022-10-30T13:56:56.168Z,79.39
2022-10-30T13:59:36.022Z,79.77
2022-10-30T14:02:15.643Z,80.04
2022-10-30T14:04:52.368Z,80.55
2022-10-30T14:08:06.339Z,80.65
2022-10-30T14:10:46.169Z,81.05
2022-10-30T14:13:27.178Z,80.99
2022-10-30T14:16:06.610Z,81.14
2022-10-30T14:19:02.112Z,81.26
2022-10-30T14:21:33.048Z,81.49
2022-10-30T14:24:31.655Z,81.58
2022-10-30T14:27:05.985Z,81.51
2022-10-30T14:29:34.297Z,81.54
2022-10-30T14:32:23.188Z,81.86
2022-10-30T14:34:51.369Z,82.00
2022-10-30T14:37:29.034Z,82.29
2022-10-30T14:39:58.682Z,82.42
2022-10-30T14:42:56.463Z,82.67
2022-10-30T14:45:34.577Z,82.61
2022-10-30T14:48:11.821Z,81.98
2022-10-30T14:50:57.019Z,81.91
2022-10-30T14:53:30.934Z,82.33
2022-10-30T14:56:07.848Z,82.65
2022-10-30T14:58:38.347Z,82.71
2022-10-30T15:01:09.410Z,82.64
2022-10-30T15:03:47.594Z,82.68
2022-10-30T15:06:30.580Z,82.80
2022-10-30T15:09:31.928Z,82.84
2022-10-30T15:12:16.475Z,82.82
2022-10-30T15:14:54.938Z,82.92
2022-10-30T15:17:23.008Z,83.01
2022-10-30T15:19:52.298Z,83.07
2022-10-30T15:22:23.835Z,83.16
2022-10-30T15:24:52.570Z,83.25
2022-10-30T15:27:23.953Z,83.32
2022-10-30T15:30:02.686Z,83.45
2022-10-30T15:32:30.756Z,83.45
2022-10-30T15:35:01.998Z,83.60
2022-10-30T15:37:31.039Z,83.72
2022-10-30T15:40:12.019Z,83.78
2022-10-30T15:42:40.662Z,83.94
2022-10-30T15:45:18.287Z,83.94
2022-10-30T15:48:02.917Z,84.13
2022-10-30T15:50:33.191Z,84.20
2022-10-30T15:53:01.966Z,84.41
2022-10-30T15:55:32.585Z,84.41
2022-10-30T15:58:05.370Z,84.60
2022-10-30T16:00:38.260Z,84.65
2022-10-30T16:03:12.306Z,84.68
2022-10-30T16:05:40.500Z,84.68
2022-10-30T16:08:21.951Z,84.71
2022-10-30T16:10:53.947Z,84.72
2022-10-30T16:13:32.120Z,84.80
2022-10-30T16:16:03.447Z,84.91
2022-10-30T16:18:36.785Z,84.88
2022-10-30T16:21:08.698Z,84.89
2022-10-30T16:23:46.723Z,84.96
2022-10-30T16:26:37.803Z,85.05
2022-10-30T16:29:26.962Z,84.99
2022-10-30T16:31:55.616Z,85.07
2022-10-30T16:34:35.168Z,85.11
2022-10-30T16:37:05.525Z,85.12
2022-10-30T16:39:34.919Z,85.26
2022-10-30T16:42:03.022Z,85.32
2022-10-30T16:44:33.944Z,85.37
2022-10-30T16:47:21.988Z,85.28
2022-10-30T16:49:56.793Z,85.21
2022-10-30T16:52:33.296Z,85.11
2022-10-30T16:55:06.680Z,84.99
2022-10-30T16:57:44.063Z,85.10
2022-10-30T17:00:24.316Z,85.02
2022-10-30T17:02:58.253Z,84.90
2022-10-30T17:05:34.243Z,84.83
2022-10-30T17:08:25.630Z,84.94
2022-10-30T17:11:00.122Z,84.86
2022-10-30T17:13:46.358Z,84.88
2022-10-30T17:16:32.261Z,84.74
2022-10-30T17:19:18.147Z,84.99
2022-10-30T17:21:46.162Z,84.86
2022-10-30T17:24:23.796Z,84.82
2022-10-30T17:26:58.882Z,84.69
2022-10-30T17:29:42.398Z,84.62
2022-10-30T17:32:44.152Z,84.86
2022-10-30T17:35:19.457Z,84.89
2022-10-30T17:37:47.394Z,84.96
2022-10-30T17:40:15.756Z,84.84
2022-10-30T17:42:44.059Z,84.76
2022-10-30T17:45:15.741Z,84.98
2022-10-30T17:47:44.334Z,85.13
2022-10-30T17:50:12.976Z,85.21
2022-10-30T17:52:41.294Z,85.18
2022-10-30T17:55:32.682Z,85.16
2022-10-30T17:58:00.765Z,85.11
2022-10-30T18:00:29.035Z,85.07
2022-10-30T18:02:57.194Z,85.15
2022-10-30T18:05:29.460Z,85.17
2022-10-30T18:07:57.667Z,85.09
2022-10-30T18:10:25.656Z,85.18
2022-10-30T18:12:53.573Z,84.99
2022-10-30T18:15:30.112Z,84.95
2022-10-30T18:17:58.307Z,84.84
2022-10-30T18:20:27.663Z,84.82
2022-10-30T18:22:56.240Z,84.80
2022-10-30T18:25:34.882Z,84.74
2022-10-30T18:28:02.960Z,84.89
2022-10-30T18:30:31.256Z,84.83
2022-10-30T18:33:04.072Z,84.87
2022-10-30T18:35:39.754Z,84.93
2022-10-30T18:38:08.426Z,84.78
2022-10-30T18:40:36.587Z,85.03
2022-10-30T18:43:04.559Z,85.16
2022-10-30T18:45:41.310Z,84.98
2022-10-30T18:48:10.475Z,84.99
2022-10-30T18:50:39.120Z,84.97
2022-10-30T18:53:14.792Z,84.86
2022-10-30T18:55:42.953Z,84.77
2022-10-30T18:58:11.679Z,84.76
2022-10-30T19:01:10.057Z,85.13
2022-10-30T19:03:28.525Z,85.13
2022-10-30T19:05:57.169Z,84.99
2022-10-30T19:08:24.987Z,85.06
2022-10-30T19:10:57.105Z,85.22
2022-10-30T19:13:25.402Z,85.30
2022-10-30T19:16:00.291Z,85.49
2022-10-30T19:18:31.340Z,85.70
2022-10-30T19:21:10.271Z,85.58
2022-10-30T19:23:43.125Z,85.67
2022-10-30T19:26:13.601Z,85.62
2022-10-30T19:28:42.131Z,85.56
2022-10-30T19:31:15.023Z,85.64
2022-10-30T19:33:44.231Z,85.71
2022-10-30T19:36:32.051Z,85.84
2022-10-30T19:39:05.870Z,85.87
2022-10-30T19:41:38.992Z,85.86
2022-10-30T19:44:07.031Z,85.89
2022-10-30T19:46:35.377Z,85.79
2022-10-30T19:49:23.761Z,85.60
2022-10-30T19:51:51.619Z,85.64
2022-10-30T19:54:19.680Z,85.73
2022-10-30T19:56:47.855Z,85.74
2022-10-30T19:59:16.220Z,85.79
2022-10-30T20:01:44.975Z,85.52
2022-10-30T20:04:13.823Z,85.39
2022-10-30T20:06:41.735Z,85.29
2022-10-30T20:09:13.248Z,85.16
2022-10-30T20:11:41.317Z,85.22
2022-10-30T20:14:09.261Z,85.41
2022-10-30T20:16:37.373Z,85.28
2022-10-30T20:19:29.704Z,85.16
2022-10-30T20:21:57.957Z,84.99
2022-10-30T20:24:25.849Z,85.33
2022-10-30T20:26:57.274Z,85.39
2022-10-30T20:29:25.623Z,85.13
2022-10-30T20:31:53.508Z,85.13
2022-10-30T20:34:21.554Z,85.37
2022-10-30T20:36:49.757Z,85.49
2022-10-30T20:39:17.657Z,85.34
2022-10-30T20:41:45.729Z,85.51
2022-10-30T20:44:13.960Z,85.45
2022-10-30T20:46:41.871Z,85.41
2022-10-30T20:49:17.530Z,85.58
2022-10-30T20:51:47.946Z,85.61
2022-10-30T20:54:16.180Z,85.70
2022-10-30T20:56:44.066Z,85.52
2022-10-30T20:59:12.324Z,85.53
2022-10-30T21:01:40.351Z,85.73
2022-10-30T21:04:08.439Z,85.49
2022-10-30T21:06:37.050Z,85.65
2022-10-30T21:09:05.018Z,85.65
2022-10-30T21:11:32.956Z,85.92
2022-10-30T21:14:01.052Z,85.95
2022-10-30T21:16:29.013Z,85.73
2022-10-30T21:18:56.822Z,85.80
2022-10-30T21:21:25.967Z,85.96
2022-10-30T21:23:55.319Z,86.00
2022-10-30T21:26:24.812Z,85.67
2022-10-30T21:28:53.235Z,85.67
2022-10-30T21:31:21.266Z,85.92
2022-10-30T21:33:49.207Z,86.11
2022-10-30T21:36:22.726Z,86.25
2022-10-30T21:38:50.796Z,85.94
2022-10-30T21:41:21.192Z,86.02
2022-10-30T21:43:54.845Z,86.04
2022-10-30T21:46:24.935Z,86.03
2022-10-30T21:48:53.697Z,85.84
2022-10-30T21:51:26.710Z,85.99
2022-10-30T21:53:56.027Z,85.68
2022-10-30T21:56:26.888Z,85.78
2022-10-30T21:58:56.847Z,85.92
2022-10-30T22:01:27.967Z,85.77
2022-10-30T22:03:58.344Z,85.81
2022-10-30T22:06:26.638Z,85.83
2022-10-30T22:08:56.518Z,85.90
2022-10-30T22:11:26.822Z,85.92
2022-10-30T22:13:56.851Z,85.92
2022-10-30T22:16:26.280Z,85.72
2022-10-30T22:18:55.096Z,85.51
2022-10-30T22:21:23.455Z,85.50
2022-10-30T22:23:51.486Z,85.52
2022-10-30T22:26:22.501Z,85.50
2022-10-30T22:28:55.296Z,85.58
2022-10-30T22:31:25.197Z,85.66
2022-10-30T22:33:53.634Z,85.78
2022-10-30T22:36:24.479Z,85.70
2022-10-30T22:39:04.381Z,85.43
2022-10-30T22:41:37.596Z,85.23
2022-10-30T22:44:09.130Z,85.20
2022-10-30T22:46:37.657Z,85.18
2022-10-30T22:49:06.475Z,85.14
2022-10-30T22:51:37.705Z,85.12
2022-10-30T22:54:09.657Z,85.28
2022-10-30T22:56:39.313Z,85.37
2022-10-30T22:59:10.733Z,85.29
2022-10-30T23:01:40.458Z,85.15
2022-10-30T23:04:11.133Z,85.07
2022-10-30T23:06:39.238Z,85.17
2022-10-30T23:09:12.114Z,85.09
2022-10-30T23:11:40.115Z,84.89
2022-10-30T23:14:08.162Z,84.91
2022-10-30T23:16:36.158Z,84.80
2022-10-30T23:19:04.333Z,84.72
2022-10-30T23:21:32.240Z,84.81
2022-10-30T23:24:02.886Z,84.52
2022-10-30T23:26:33.454Z,84.79
2022-10-30T23:29:02.400Z,84.72
2022-10-30T23:31:37.140Z,84.76
2022-10-30T23:34:08.641Z,84.73
2022-10-30T23:36:37.130Z,84.67
2022-10-30T23:39:08.935Z,84.89
2022-10-30T23:41:36.984Z,84.66
2022-10-30T23:44:08.126Z,84.76
2022-10-30T23:46:36.481Z,84.55
2022-10-30T23:49:05.086Z,84.57
2022-10-30T23:51:34.169Z,84.66
2022-10-30T23:54:02.489Z,84.59
2022-10-30T23:56:30.498Z,84.56
2022-10-30T23:58:58.821Z,84.62
